createdAt,value
2023-07-24T00:00:23.464Z,100163.72
2023-07-24T00:02:50.154Z,100170.00
2023-07-24T00:05:16.892Z,100168.31
2023-07-24T00:07:43.523Z,100168.50
2023-07-24T00:10:10.369Z,100153.72
2023-07-24T00:12:37.091Z,100158.19
2023-07-24T00:15:04.077Z,100158.41
2023-07-24T00:17:30.764Z,100163.09
2023-07-24T00:19:57.522Z,100160.41
2023-07-24T00:22:24.150Z,100149.19
2023-07-24T00:24:50.893Z,100148.34
2023-07-24T00:27:17.761Z,100151.09
2023-07-24T00:29:44.664Z,100153.00
2023-07-24T00:32:11.511Z,100156.72
2023-07-24T00:34:38.880Z,100161.31
2023-07-24T00:37:05.865Z,100152.53
2023-07-24T00:39:32.544Z,100159.78
2023-07-24T00:41:59.321Z,100154.56
2023-07-24T00:44:25.968Z,100155.50
2023-07-24T00:46:52.815Z,100157.41
2023-07-24T00:49:20.338Z,100148.63
2023-07-24T00:51:47.653Z,100147.00
2023-07-24T00:54:15.985Z,100156.00
2023-07-24T00:56:42.742Z,100146.28
2023-07-24T00:59:09.500Z,100146.34
2023-07-24T01:01:37.910Z,100139.41
2023-07-24T01:04:06.844Z,100144.75
2023-07-24T01:06:33.740Z,100149.31
2023-07-24T01:09:00.575Z,100152.19
2023-07-24T01:11:38.603Z,100137.13
2023-07-24T01:14:28.047Z,100144.47
2023-07-24T01:16:57.106Z,100139.13
2023-07-24T01:19:39.484Z,100148.06
2023-07-24T01:22:30.858Z,100146.28
2023-07-24T01:25:26.735Z,100138.63
2023-07-24T01:27:53.495Z,100139.56
2023-07-24T01:30:22.449Z,100143.13
2023-07-24T01:32:50.331Z,100141.56
2023-07-24T01:35:17.659Z,100141.56
2023-07-24T01:37:47.532Z,100137.31
2023-07-24T01:40:14.763Z,100142.63
2023-07-24T01:42:42.280Z,100138.22
2023-07-24T01:45:09.715Z,100139.19
2023-07-24T01:47:36.487Z,100143.88
2023-07-24T01:50:03.450Z,100146.66
2023-07-24T01:52:30.082Z,100141.41
2023-07-24T01:54:56.743Z,100130.84
2023-07-24T01:57:23.471Z,100137.09
2023-07-24T01:59:50.266Z,100139.75
2023-07-24T02:02:17.095Z,100144.25
2023-07-24T02:04:44.109Z,100134.66
2023-07-24T02:07:10.802Z,100140.91
2023-07-24T02:09:37.463Z,100133.28
2023-07-24T02:12:04.633Z,100132.34
2023-07-24T02:14:33.448Z,100138.63
2023-07-24T02:17:00.124Z,100125.50
2023-07-24T02:19:26.850Z,100129.88
2023-07-24T02:21:53.531Z,100131.75
2023-07-24T02:24:20.262Z,100132.78
2023-07-24T02:26:47.091Z,100124.06
2023-07-24T02:29:13.749Z,100131.28
2023-07-24T02:31:40.452Z,100132.25
2023-07-24T02:34:07.390Z,100132.25
2023-07-24T02:36:34.106Z,100135.94
2023-07-24T02:39:00.788Z,100130.59
2023-07-24T02:41:27.508Z,100129.88
2023-07-24T02:43:54.124Z,100133.38
2023-07-24T02:46:20.798Z,100127.19
2023-07-24T02:48:47.517Z,100130.59
2023-07-24T02:51:14.141Z,100131.66
2023-07-24T02:53:40.770Z,100127.19
2023-07-24T02:56:07.447Z,100126.31
2023-07-24T02:58:34.118Z,100120.06
2023-07-24T03:01:05.817Z,100131.56
2023-07-24T03:03:32.627Z,100120.31
2023-07-24T03:05:59.449Z,100132.59
2023-07-24T03:08:26.286Z,100136.13
2023-07-24T03:10:53.072Z,100133.47
2023-07-24T03:13:19.731Z,100135.28
2023-07-24T03:15:54.209Z,100131.66
2023-07-24T03:18:21.435Z,100140.44
2023-07-24T03:20:48.297Z,100135.09
2023-07-24T03:23:15.259Z,100133.19
2023-07-24T03:25:42.589Z,100127.00
2023-07-24T03:28:09.650Z,100125.09
2023-07-24T03:30:36.457Z,100128.63
2023-07-24T03:33:03.642Z,100136.53
2023-07-24T03:35:30.412Z,100139.19
2023-07-24T03:37:57.084Z,100139.03
2023-07-24T03:40:23.787Z,100133.69
2023-07-24T03:42:50.425Z,100129.88
2023-07-24T03:45:17.143Z,100131.56
2023-07-24T03:47:44.416Z,100135.94
2023-07-24T03:50:11.305Z,100129.69
2023-07-24T03:52:38.004Z,100133.09
2023-07-24T03:55:05.034Z,100127.56
2023-07-24T03:57:31.707Z,100126.66
2023-07-24T03:59:58.432Z,100129.97
2023-07-24T04:02:25.505Z,100131.56
2023-07-24T04:04:52.219Z,100122.63
2023-07-24T04:07:18.941Z,100127.78
2023-07-24T04:09:45.626Z,100117.78
2023-07-24T04:12:12.406Z,100119.28
2023-07-24T04:14:39.094Z,100127.09
2023-07-24T04:17:06.063Z,100115.34
2023-07-24T04:19:33.931Z,100125.03
2023-07-24T04:22:00.615Z,100112.44
2023-07-24T04:24:27.282Z,100116.72
2023-07-24T04:26:53.926Z,100111.19
2023-07-24T04:29:24.847Z,100112.06
2023-07-24T04:31:51.826Z,100115.28
2023-07-24T04:34:18.612Z,100114.97
2023-07-24T04:36:45.347Z,100114.78
2023-07-24T04:39:11.985Z,100110.22
2023-07-24T04:41:38.665Z,100110.03
2023-07-24T04:44:05.331Z,100102.00
2023-07-24T04:46:32.224Z,100105.34
2023-07-24T04:48:59.212Z,100107.69
2023-07-24T04:51:25.941Z,100103.88
2023-07-24T04:53:52.582Z,100104.44
2023-07-24T04:56:19.252Z,100105.84
2023-07-24T04:58:45.934Z,100101.91
2023-07-24T05:01:12.631Z,100098.19
2023-07-24T05:03:39.738Z,100110.06
2023-07-24T05:06:06.452Z,100100.91
2023-07-24T05:08:33.334Z,100098.97
2023-07-24T05:11:00.221Z,100105.63
2023-07-24T05:13:27.621Z,100098.25
2023-07-24T05:15:54.369Z,100097.84
2023-07-24T05:18:21.147Z,100093.16
2023-07-24T05:20:49.742Z,100092.75
2023-07-24T05:23:16.582Z,100089.75
2023-07-24T05:25:43.337Z,100098.13
2023-07-24T05:28:10.321Z,100097.75
2023-07-24T05:30:37.609Z,100096.44
2023-07-24T05:33:04.446Z,100097.72
2023-07-24T05:35:31.184Z,100100.97
2023-07-24T05:37:57.858Z,100097.94
2023-07-24T05:40:24.530Z,100099.22
2023-07-24T05:42:51.444Z,100095.81
2023-07-24T05:45:18.326Z,100097.84
2023-07-24T05:47:45.017Z,100096.22
2023-07-24T05:50:14.598Z,100091.28
2023-07-24T05:52:41.813Z,100091.50
2023-07-24T05:55:09.099Z,100095.44
2023-07-24T05:57:35.828Z,100085.22
2023-07-24T06:00:05.073Z,100093.59
2023-07-24T06:02:32.123Z,100094.84
2023-07-24T06:04:59.082Z,100091.00
2023-07-24T06:07:25.874Z,100086.19
2023-07-24T06:09:52.604Z,100086.47
2023-07-24T06:12:19.286Z,100086.75
2023-07-24T06:14:46.353Z,100084.84
2023-07-24T06:17:13.042Z,100082.97
2023-07-24T06:19:39.822Z,100087.41
2023-07-24T06:22:06.494Z,100084.00
2023-07-24T06:24:33.179Z,100087.84
2023-07-24T06:26:59.957Z,100082.34
2023-07-24T06:29:27.092Z,100083.31
2023-07-24T06:31:53.787Z,100082.34
2023-07-24T06:34:20.577Z,100073.22
2023-07-24T06:36:47.351Z,100080.03
2023-07-24T06:39:13.985Z,100077.66
2023-07-24T06:41:40.714Z,100070.72
2023-07-24T06:44:07.372Z,100074.53
2023-07-24T06:46:34.018Z,100077.22
2023-07-24T06:49:00.711Z,100074.53
2023-07-24T06:51:27.509Z,100070.91
2023-07-24T06:53:54.155Z,100066.34
2023-07-24T06:56:20.827Z,100069.78
2023-07-24T06:58:47.771Z,100065.00
2023-07-24T07:01:14.489Z,100062.66
2023-07-24T07:03:41.196Z,100065.81
2023-07-24T07:06:07.941Z,100065.50
2023-07-24T07:08:34.693Z,100061.41
2023-07-24T07:11:02.320Z,100058.25
2023-07-24T07:13:29.043Z,100061.78
2023-07-24T07:15:55.903Z,100062.06
2023-07-24T07:18:23.177Z,100058.69
2023-07-24T07:20:54.317Z,100049.66
2023-07-24T07:23:22.296Z,100053.22
2023-07-24T07:25:50.479Z,100054.72
2023-07-24T07:28:17.590Z,100050.94
2023-07-24T07:30:46.160Z,100041.38
2023-07-24T07:33:13.035Z,100052.63
2023-07-24T07:35:39.715Z,100042.81
2023-07-24T07:38:06.474Z,100041.94
2023-07-24T07:40:33.262Z,100043.16
2023-07-24T07:43:00.046Z,100038.72
2023-07-24T07:45:26.760Z,100032.16
2023-07-24T07:47:54.584Z,100027.09
2023-07-24T07:50:21.535Z,100032.59
2023-07-24T07:52:52.332Z,100022.47
2023-07-24T07:55:20.509Z,100027.41
2023-07-24T07:57:47.302Z,100024.63
2023-07-24T08:00:14.413Z,100017.63
2023-07-24T08:02:41.382Z,100015.16
2023-07-24T08:05:13.640Z,99999.94
2023-07-24T08:07:43.028Z,100007.81
2023-07-24T08:10:10.003Z,100005.00
2023-07-24T08:12:36.629Z,99999.56
2023-07-24T08:15:03.492Z,99999.84
2023-07-24T08:17:31.195Z,100000.78
2023-07-24T08:19:57.970Z,100005.16
2023-07-24T08:22:25.535Z,100005.50
2023-07-24T08:24:53.494Z,100000.72
2023-07-24T08:27:21.878Z,100001.97
2023-07-24T08:29:52.509Z,99997.84
2023-07-24T08:32:19.598Z,99997.53
2023-07-24T08:34:46.350Z,100004.56
2023-07-24T08:37:13.180Z,100005.59
2023-07-24T08:39:40.036Z,100007.50
2023-07-24T08:42:11.338Z,99984.53
2023-07-24T08:44:38.153Z,99992.13
2023-07-24T08:47:05.397Z,99998.66
2023-07-24T08:49:33.266Z,99991.69
2023-07-24T08:52:02.354Z,99992.53
2023-07-24T08:54:30.405Z,99987.13
2023-07-24T08:56:57.011Z,99990.91
2023-07-24T08:59:23.696Z,99993.19
2023-07-24T09:01:50.352Z,99992.81
2023-07-24T09:04:17.015Z,99994.06
2023-07-24T09:06:44.274Z,99994.41
2023-07-24T09:09:15.528Z,99986.41
2023-07-24T09:11:50.621Z,99987.31
2023-07-24T09:14:29.759Z,99978.69
2023-07-24T09:17:07.102Z,99991.13
2023-07-24T09:19:34.163Z,99984.97
2023-07-24T09:22:11.475Z,99981.03
2023-07-24T09:24:38.237Z,99985.13
2023-07-24T09:27:08.450Z,99979.88
2023-07-24T09:29:36.507Z,99981.03
2023-07-24T09:32:03.540Z,99976.00
2023-07-24T09:34:30.316Z,99972.56
2023-07-24T09:36:57.175Z,99973.31
2023-07-24T09:39:25.762Z,99977.56
2023-07-24T09:41:53.592Z,99976.09
2023-07-24T09:44:20.338Z,99970.03
2023-07-24T09:47:02.478Z,99966.78
2023-07-24T09:49:32.639Z,99961.03
2023-07-24T09:52:03.602Z,99960.53
2023-07-24T09:54:42.115Z,99958.44
2023-07-24T09:57:21.480Z,99959.34
2023-07-24T09:59:50.918Z,99958.06
2023-07-24T10:02:18.889Z,99956.41
2023-07-24T10:04:46.635Z,99955.94
2023-07-24T10:07:14.816Z,99959.63
2023-07-24T10:09:44.376Z,99948.84
2023-07-24T10:12:11.045Z,99962.69
2023-07-24T10:14:38.705Z,99952.44
2023-07-24T10:17:06.368Z,99949.59
2023-07-24T10:19:46.400Z,99946.22
2023-07-24T10:22:25.338Z,99945.41
2023-07-24T10:24:56.795Z,99938.84
2023-07-24T10:27:27.205Z,99943.44
2023-07-24T10:30:01.195Z,99941.75
2023-07-24T10:32:28.122Z,99949.03
2023-07-24T10:35:08.966Z,99935.53
2023-07-24T10:37:37.529Z,99938.03
2023-07-24T10:40:06.107Z,99941.28
2023-07-24T10:42:35.233Z,99943.06
2023-07-24T10:45:06.836Z,99935.34
2023-07-24T10:47:33.905Z,99938.19
2023-07-24T10:50:02.415Z,99934.25
2023-07-24T10:52:33.869Z,99932.72
2023-07-24T10:55:04.762Z,99926.50
2023-07-24T10:57:32.131Z,99927.69
2023-07-24T11:00:00.181Z,99917.00
2023-07-24T11:02:27.376Z,99922.88
2023-07-24T11:04:54.128Z,99925.94
2023-07-24T11:07:21.839Z,99923.22
2023-07-24T11:09:49.362Z,99921.50
2023-07-24T11:16:19.847Z,99939.06
2023-07-24T11:20:51.841Z,99915.19
2023-07-24T11:23:19.137Z,99915.75
2023-07-24T11:25:46.844Z,99924.47
2023-07-24T11:28:15.081Z,99916.25
2023-07-24T11:30:42.855Z,99928.03
2023-07-24T11:33:11.458Z,99918.44
2023-07-24T11:35:41.878Z,99911.50
2023-07-24T11:38:11.918Z,99920.44
2023-07-24T11:40:45.308Z,99916.09
2023-07-24T11:43:20.056Z,99914.63
2023-07-24T11:45:53.524Z,99921.31
2023-07-24T11:48:24.821Z,99918.22
2023-07-24T11:50:53.687Z,99918.34
2023-07-24T11:53:25.864Z,99919.22
2023-07-24T11:55:54.271Z,99914.69
2023-07-24T11:58:21.805Z,99916.94
2023-07-24T12:00:49.859Z,99917.22
2023-07-24T12:03:26.591Z,99918.50
2023-07-24T12:05:53.831Z,99910.13
2023-07-24T12:08:24.925Z,99910.28
2023-07-24T12:10:51.775Z,99908.59
2023-07-24T12:13:20.802Z,99913.09
2023-07-24T12:15:48.839Z,99907.88
2023-07-24T12:18:16.241Z,99903.22
2023-07-24T12:20:42.906Z,99900.94
2023-07-24T12:23:09.807Z,99909.16
2023-07-24T12:25:36.599Z,99909.00
2023-07-24T12:28:03.567Z,99906.19
2023-07-24T12:30:30.387Z,99906.31
2023-07-24T12:32:57.271Z,99902.91
2023-07-24T12:35:23.995Z,99894.69
2023-07-24T12:37:50.734Z,99898.22
2023-07-24T12:40:17.593Z,99895.53
2023-07-24T12:42:44.319Z,99890.88
2023-07-24T12:45:11.156Z,99894.25
2023-07-24T12:47:37.874Z,99893.28
2023-07-24T12:50:07.920Z,99891.44
2023-07-24T12:52:34.911Z,99888.75
2023-07-24T12:55:02.859Z,99889.59
2023-07-24T12:57:30.658Z,99887.59
2023-07-24T12:59:57.596Z,99885.03
2023-07-24T13:02:24.478Z,99879.22
2023-07-24T13:04:51.557Z,99882.78
2023-07-24T13:07:18.256Z,99881.50
2023-07-24T13:09:45.492Z,99869.00
2023-07-24T13:12:12.231Z,99876.81
2023-07-24T13:14:42.057Z,99869.28
2023-07-24T13:17:09.592Z,99878.09
2023-07-24T13:19:36.364Z,99884.19
2023-07-24T13:22:03.064Z,99875.22
2023-07-24T13:24:29.726Z,99882.06
2023-07-24T13:26:56.405Z,99884.59
2023-07-24T13:29:25.507Z,99883.59
2023-07-24T13:31:55.549Z,99873.81
2023-07-24T13:34:23.202Z,99872.69
2023-07-24T13:36:49.937Z,99875.50
2023-07-24T13:39:16.684Z,99875.50
2023-07-24T14:27:30.562Z,99844.59
2023-07-24T14:29:57.283Z,99842.91
2023-07-24T14:32:23.973Z,99835.81
2023-07-24T14:34:52.872Z,99832.41
2023-07-24T14:37:20.158Z,99839.50
2023-07-24T14:39:46.939Z,99834.41
2023-07-24T14:42:13.680Z,99845.75
2023-07-24T14:44:40.565Z,99833.84
2023-07-24T14:47:09.430Z,99830.72
2023-07-24T14:49:36.077Z,99832.56
2023-07-24T14:52:02.767Z,99838.94
2023-07-24T14:54:29.438Z,99835.81
2023-07-24T14:57:01.943Z,99828.16
2023-07-24T14:59:37.528Z,99828.06
2023-07-24T15:02:04.606Z,99833.84
2023-07-24T15:04:31.328Z,99832.84
2023-07-24T15:06:58.154Z,99833.44
2023-07-24T15:09:24.972Z,99837.53
2023-07-24T15:11:51.702Z,99844.06
2023-07-24T15:14:18.523Z,99844.91
2023-07-24T15:16:46.574Z,99840.91
2023-07-24T15:19:13.292Z,99836.38
2023-07-24T15:21:40.024Z,99837.94
2023-07-24T15:24:06.726Z,99841.75
2023-07-24T15:26:33.509Z,99841.19
2023-07-24T15:29:00.198Z,99834.13
2023-07-24T15:31:27.030Z,99838.66
2023-07-24T15:33:53.801Z,99835.97
2023-07-24T15:36:20.459Z,99834.00
2023-07-24T15:38:47.197Z,99829.47
2023-07-24T15:41:13.886Z,99834.56
2023-07-24T15:43:40.645Z,99833.00
2023-07-24T15:46:07.474Z,99824.38
2023-07-24T15:48:34.406Z,99823.34
2023-07-24T15:51:01.104Z,99822.19
2023-07-24T15:53:27.818Z,99826.63
2023-07-24T15:55:54.721Z,99829.59
2023-07-24T15:58:21.398Z,99824.50
2023-07-24T16:00:48.087Z,99829.59
2023-07-24T16:03:14.922Z,99824.22
2023-07-24T16:05:41.786Z,99820.94
2023-07-24T16:08:08.765Z,99819.22
2023-07-24T16:10:35.559Z,99816.41
2023-07-24T16:13:02.375Z,99814.00
2023-07-24T16:20:29.412Z,99819.78
2023-07-24T16:22:56.161Z,99825.31
2023-07-24T16:25:22.940Z,99813.84
2023-07-24T16:27:49.975Z,99814.00
2023-07-24T16:30:16.879Z,99811.44
2023-07-24T16:35:15.285Z,99808.03
2023-07-24T16:37:42.041Z,99810.72
2023-07-24T16:40:09.792Z,99800.97
2023-07-24T16:42:36.677Z,99795.41
2023-07-24T16:45:03.652Z,99805.06
2023-07-24T16:47:30.612Z,99807.88
2023-07-24T16:49:57.330Z,99803.50
2023-07-24T16:52:24.011Z,99795.69
2023-07-24T16:54:51.842Z,99794.28
2023-07-24T16:57:18.598Z,99792.72
2023-07-24T16:59:45.310Z,99807.03
2023-07-24T17:02:13.767Z,99813.28
2023-07-24T17:04:40.705Z,99807.03
2023-07-24T17:07:07.907Z,99799.84
2023-07-24T17:09:34.806Z,99799.69
2023-07-24T17:12:04.675Z,99798.09
2023-07-24T17:14:31.731Z,99796.84
2023-07-24T17:16:58.490Z,99803.19
2023-07-24T17:19:25.245Z,99797.97
2023-07-24T17:21:52.088Z,99795.28
2023-07-24T17:24:18.901Z,99804.34
2023-07-24T17:26:45.777Z,99804.34
2023-07-24T17:29:12.490Z,99799.25
2023-07-24T17:31:40.534Z,99801.94
2023-07-24T17:34:07.286Z,99802.91
2023-07-24T17:36:33.953Z,99805.59
2023-07-24T17:39:02.086Z,99799.53
2023-07-24T17:41:29.154Z,99795.84
2023-07-24T17:43:56.093Z,99799.38
2023-07-24T17:46:22.873Z,99787.75
2023-07-24T17:48:50.256Z,99799.81
2023-07-24T17:51:17.061Z,99797.22
2023-07-24T17:53:43.824Z,99793.56
2023-07-24T17:56:10.640Z,99781.97
2023-07-24T17:58:37.648Z,99785.63
2023-07-24T18:01:04.364Z,99779.97
2023-07-24T18:03:31.192Z,99781.97
2023-07-24T18:05:59.479Z,99779.28
2023-07-24T18:08:26.420Z,99774.16
2023-07-24T18:10:53.246Z,99778.56
2023-07-24T18:13:19.970Z,99778.41
2023-07-24T18:15:46.848Z,99777.44
2023-07-24T18:18:13.681Z,99770.19
2023-07-24T18:20:40.486Z,99772.63
2023-07-24T18:23:07.191Z,99760.00
2023-07-24T18:25:33.856Z,99763.53
2023-07-24T18:28:00.652Z,99770.75
2023-07-24T18:30:29.923Z,99776.00
2023-07-24T18:32:57.724Z,99767.22
2023-07-24T18:35:26.157Z,99766.38
2023-07-24T18:37:52.901Z,99759.28
2023-07-24T18:40:19.807Z,99766.78
2023-07-24T18:42:46.474Z,99769.47
2023-07-24T18:45:13.628Z,99770.47
2023-07-24T18:47:40.540Z,99771.47
2023-07-24T18:50:07.783Z,99772.72
2023-07-24T18:52:34.502Z,99767.66
2023-07-24T18:55:01.219Z,99777.69
2023-07-24T18:57:28.085Z,99779.66
2023-07-24T18:59:54.849Z,99777.13
2023-07-24T19:02:21.576Z,99776.56
2023-07-24T19:04:48.272Z,99768.91
2023-07-24T19:07:15.375Z,99764.75
2023-07-24T19:09:42.114Z,99771.31
2023-07-24T19:12:09.182Z,99776.94
2023-07-24T19:14:36.062Z,99768.28
2023-07-24T19:17:02.783Z,99773.09
2023-07-24T19:19:29.446Z,99767.97
2023-07-24T19:21:56.193Z,99762.16
2023-07-24T19:24:22.975Z,99758.03
2023-07-24T19:26:49.825Z,99766.25
2023-07-24T19:29:16.651Z,99762.13
2023-07-24T19:31:43.401Z,99758.84
2023-07-24T19:34:10.125Z,99751.78
2023-07-24T19:36:36.900Z,99745.81
2023-07-24T19:39:03.678Z,99750.34
2023-07-24T19:41:30.616Z,99743.41
2023-07-24T19:43:57.414Z,99741.00
2023-07-24T19:46:24.275Z,99732.22
2023-07-24T19:48:51.010Z,99727.13
2023-07-24T19:51:17.702Z,99729.66
2023-07-24T19:53:44.470Z,99731.66
2023-07-24T19:56:11.144Z,99721.19
2023-07-24T19:58:38.101Z,99722.13
2023-07-24T20:01:05.166Z,99723.41
2023-07-24T20:03:32.298Z,99725.50
2023-07-24T20:06:02.844Z,99720.28
2023-07-24T20:08:33.255Z,99716.16
2023-07-24T20:11:01.461Z,99722.78
2023-07-24T20:13:31.196Z,99716.97
2023-07-24T20:15:58.798Z,99720.94
2023-07-24T20:18:25.953Z,99721.47
2023-07-24T20:20:53.103Z,99711.97
2023-07-24T20:23:20.572Z,99713.94
2023-07-24T20:25:51.482Z,99714.19
2023-07-24T20:28:19.646Z,99715.41
2023-07-24T20:30:46.591Z,99722.75
2023-07-24T20:33:13.648Z,99710.56
2023-07-24T20:35:40.351Z,99713.25
2023-07-24T20:38:07.813Z,99709.00
2023-07-24T20:40:35.423Z,99705.63
2023-07-24T20:43:04.140Z,99706.72
2023-07-24T20:45:30.938Z,99705.28
2023-07-24T20:47:57.788Z,99704.44
2023-07-24T20:50:24.527Z,99701.19
2023-07-24T20:52:51.386Z,99701.28
2023-07-24T20:55:18.226Z,99704.25
2023-07-24T20:57:45.000Z,99702.69
2023-07-24T21:00:12.264Z,99702.97
2023-07-24T21:02:39.043Z,99697.97
2023-07-24T21:05:06.162Z,99694.44
2023-07-24T21:07:32.881Z,99696.53
2023-07-24T21:09:59.547Z,99697.50
2023-07-24T21:12:26.281Z,99700.31
2023-07-24T21:14:52.974Z,99699.47
2023-07-24T21:17:19.708Z,99697.88
2023-07-24T21:19:46.386Z,99700.88
2023-07-24T21:22:14.405Z,99696.59
2023-07-24T21:24:41.255Z,99695.75
2023-07-24T21:27:09.787Z,99692.34
2023-07-24T21:29:36.629Z,99703.34
2023-07-24T21:32:03.590Z,99702.47
2023-07-24T21:34:31.268Z,99694.28
2023-07-24T21:36:58.082Z,99693.31
2023-07-24T21:39:24.766Z,99697.72
2023-07-24T21:41:51.581Z,99695.03
2023-07-24T21:44:18.306Z,99686.97
2023-07-24T21:46:45.341Z,99683.19
2023-07-24T21:49:12.150Z,99683.19
2023-07-24T21:51:38.882Z,99678.41
2023-07-24T21:54:05.622Z,99673.72
2023-07-24T21:56:32.525Z,99671.66
2023-07-24T21:58:59.748Z,99668.09
2023-07-24T22:01:26.581Z,99667.00
2023-07-24T22:03:53.346Z,99665.16
2023-07-24T22:06:20.081Z,99662.22
2023-07-24T22:08:46.994Z,99660.38
2023-07-24T22:11:15.150Z,99662.22
2023-07-24T22:13:44.391Z,99656.59
2023-07-24T22:16:12.073Z,99660.25
2023-07-24T22:18:38.898Z,99646.69
2023-07-24T22:21:06.024Z,99642.16
2023-07-24T22:23:33.747Z,99646.56
2023-07-24T22:26:03.904Z,99638.63
2023-07-24T22:28:30.679Z,99635.09
2023-07-24T22:30:57.350Z,99637.78
2023-07-24T22:33:24.126Z,99631.69
2023-07-24T22:36:00.278Z,99631.69
2023-07-24T22:38:27.988Z,99628.31
2023-07-24T22:40:54.679Z,99626.63
2023-07-24T22:43:21.864Z,99624.78
2023-07-24T22:45:48.613Z,99627.56
2023-07-24T22:48:15.479Z,99630.69
2023-07-24T22:50:42.279Z,99615.56
2023-07-24T22:53:09.022Z,99619.09
2023-07-24T22:55:35.722Z,99615.41
2023-07-24T22:58:02.574Z,99613.72
2023-07-24T23:00:31.484Z,99618.94
2023-07-24T23:02:58.569Z,99607.63
2023-07-24T23:05:25.311Z,99600.31
2023-07-24T23:07:55.966Z,99600.16
2023-07-24T23:10:23.268Z,99600.03
2023-07-24T23:12:50.064Z,99604.69
2023-07-24T23:15:19.402Z,99610.03
2023-07-24T23:17:46.184Z,99604.69
2023-07-24T23:20:12.909Z,99602.84
2023-07-24T23:22:39.818Z,99596.50
2023-07-24T23:25:06.997Z,99593.53
2023-07-24T23:27:33.782Z,99602.47
2023-07-24T23:30:00.578Z,99602.56
2023-07-24T23:32:27.251Z,99597.09
2023-07-24T23:34:54.405Z,99592.41
2023-07-24T23:37:21.302Z,99591.56
2023-07-24T23:39:47.971Z,99591.44
2023-07-24T23:42:14.654Z,99592.41
2023-07-24T23:44:41.469Z,99578.00
2023-07-24T23:47:08.188Z,99573.38
2023-07-24T23:49:34.925Z,99567.16
2023-07-24T23:52:01.852Z,99572.38
2023-07-24T23:54:28.545Z,99573.09
2023-07-24T23:56:55.186Z,99573.81
2023-07-24T23:59:21.898Z,99567.47
